Time;durP1;ratioP1;P1;durP2;ratioP2;P2;SDS_P1;SDS_P2;PMS_P1;PMS_P2;Temp;Humidity;BMP_temperature;BMP_pressure;BME280_temperature;BME280_humidity;BME280_pressure;Samples;Min_cycle;Max_cycle;Signal;HPM_P1;HPM_P2
2023/01/18 00:04:05;;;;;;;5.10;2.95;;;16.00;63.50;;;;;;10433043;28;20025;-57
2023/01/18 00:09:06;;;;;;;4.15;2.17;;;16.10;63.30;;;;;;10432275;28;20408;-58
2023/01/18 00:14:06;;;;;;;3.70;1.70;;;16.10;63.10;;;;;;10435129;28;20025;-57
2023/01/18 00:19:12;;;;;;;3.25;1.83;;;16.10;63.00;;;;;;10446541;28;20048;-57
2023/01/18 00:24:13;;;;;;;2.80;2.10;;;16.10;63.00;;;;;;10408067;28;20025;-58
2023/01/18 00:29:15;;;;;;;4.47;2.25;;;16.10;63.10;;;;;;10425674;28;20018;-56
2023/01/18 00:34:16;;;;;;;3.97;1.92;;;16.00;63.20;;;;;;10430448;28;20029;-58
2023/01/18 00:39:16;;;;;;;2.83;1.60;;;16.00;63.10;;;;;;10442657;28;20648;-58
2023/01/18 00:44:17;;;;;;;3.33;2.10;;;16.00;63.20;;;;;;10439822;28;20116;-57
2023/01/18 00:49:18;;;;;;;3.05;1.92;;;16.00;63.10;;;;;;10431640;28;20100;-57
2023/01/18 00:54:18;;;;;;;3.33;1.67;;;16.00;63.10;;;;;;10421642;28;20515;-57
2023/01/18 00:59:19;;;;;;;2.50;1.45;;;16.00;63.10;;;;;;10406005;28;20067;-57
2023/01/18 01:09:39;;;;;;;3.97;1.90;;;16.00;63.10;;;;;;10429353;28;20081;-57
2023/01/18 01:30:44;;;;;;;3.60;2.00;;;16.00;62.90;;;;;;10426553;28;20033;-56
2023/01/18 01:35:45;;;;;;;2.53;1.75;;;16.00;62.90;;;;;;10432702;28;20542;-57
2023/01/18 01:41:00;;;;;;;3.95;1.95;;;16.00;62.80;;;;;;10419148;28;20053;-57
2023/01/18 01:46:01;;;;;;;2.90;1.63;;;16.10;62.60;;;;;;10441359;28;20548;-57
2023/01/18 01:51:02;;;;;;;3.92;2.45;;;16.10;62.60;;;;;;10420503;28;20041;-58
2023/01/18 01:56:03;;;;;;;3.83;1.70;;;16.00;62.50;;;;;;10443615;28;20096;-57
2023/01/18 02:01:07;;;;;;;3.30;1.70;;;16.00;62.50;;;;;;10431935;28;20438;-57
2023/01/18 02:06:36;;;;;;;3.30;2.03;;;16.10;62.50;;;;;;10423496;28;20025;-57
2023/01/18 02:11:38;;;;;;;3.22;1.45;;;16.00;62.50;;;;;;10425747;28;20038;-57
2023/01/18 02:17:15;;;;;;;4.30;1.75;;;16.00;62.50;;;;;;10406309;28;20017;-58
2023/01/18 02:22:36;;;;;;;3.95;2.10;;;16.10;62.30;;;;;;10413222;28;20057;-57
2023/01/18 02:27:50;;;;;;;2.70;1.90;;;16.10;62.20;;;;;;10434787;28;20521;-57
2023/01/18 02:33:15;;;;;;;3.22;2.42;;;16.10;62.20;;;;;;10415361;28;20148;-57
2023/01/18 02:38:26;;;;;;;2.28;1.73;;;16.10;62.10;;;;;;10414903;28;20113;-58
2023/01/18 02:48:48;;;;;;;3.92;2.50;;;16.10;62.10;;;;;;10413513;28;20041;-58
2023/01/18 02:53:50;;;;;;;4.10;2.22;;;16.10;62.10;;;;;;10418060;28;20495;-57
2023/01/18 02:59:16;;;;;;;3.08;2.03;;;16.10;62.10;;;;;;10419379;28;20025;-56
2023/01/18 03:04:32;;;;;;;3.08;2.05;;;16.10;62.10;;;;;;10452026;28;20017;-58
2023/01/18 03:09:33;;;;;;;4.57;2.10;;;16.10;62.00;;;;;;10410535;28;20137;-56
2023/01/18 03:15:07;;;;;;;2.55;1.77;;;16.10;62.00;;;;;;10410238;28;20033;-57
2023/01/18 03:20:16;;;;;;;5.38;2.33;;;16.10;62.00;;;;;;10411334;28;20029;-57
2023/01/18 03:25:25;;;;;;;3.75;2.30;;;16.10;61.80;;;;;;10419062;28;20404;-58
2023/01/18 03:35:51;;;;;;;3.40;2.13;;;16.10;61.80;;;;;;10418533;28;20068;-57
2023/01/18 03:40:51;;;;;;;3.08;1.92;;;16.10;61.60;;;;;;10418175;28;20018;-58
2023/01/18 03:45:54;;;;;;;3.55;2.30;;;16.10;61.70;;;;;;10431279;28;20045;-57
2023/01/18 03:51:28;;;;;;;4.05;2.13;;;16.10;61.50;;;;;;10442476;28;20037;-58
2023/01/18 03:56:46;;;;;;;3.97;2.05;;;16.10;61.50;;;;;;10400635;28;20022;-57
2023/01/18 04:01:48;;;;;;;2.95;1.90;;;16.10;61.40;;;;;;10428208;28;20033;-57
2023/01/18 04:06:49;;;;;;;3.60;2.20;;;16.10;61.40;;;;;;10435910;28;20095;-57
2023/01/18 04:11:50;;;;;;;3.05;1.95;;;16.10;61.40;;;;;;10443229;28;20041;-57
2023/01/18 04:16:51;;;;;;;2.97;2.15;;;16.10;61.40;;;;;;10437204;28;20028;-57
2023/01/18 04:21:51;;;;;;;2.90;1.83;;;16.10;61.20;;;;;;10425211;28;20064;-57
2023/01/18 04:26:52;;;;;;;2.85;1.60;;;16.10;61.30;;;;;;10456601;28;20025;-57
2023/01/18 04:31:53;;;;;;;3.40;2.13;;;16.10;61.30;;;;;;10408117;28;20128;-57
2023/01/18 04:36:54;;;;;;;3.72;2.10;;;16.10;61.40;;;;;;10421735;28;20025;-58
2023/01/18 04:41:54;;;;;;;3.38;2.08;;;16.10;61.40;;;;;;10422408;28;20027;-57
2023/01/18 04:46:55;;;;;;;3.25;2.00;;;16.10;61.40;;;;;;10447641;28;20017;-57
2023/01/18 04:51:55;;;;;;;2.75;1.75;;;16.10;61.40;;;;;;10442643;28;20036;-58
2023/01/18 04:56:56;;;;;;;2.22;1.67;;;16.10;61.40;;;;;;10414272;28;20049;-56
2023/01/18 05:01:57;;;;;;;2.97;1.92;;;16.10;61.40;;;;;;10406289;28;20174;-58
2023/01/18 05:07:01;;;;;;;3.03;2.00;;;16.10;61.30;;;;;;10428410;28;20093;-57
2023/01/18 05:12:01;;;;;;;3.75;2.25;;;16.10;61.30;;;;;;10436401;28;20496;-57
2023/01/18 05:17:02;;;;;;;3.90;2.10;;;16.10;61.30;;;;;;10426550;28;20108;-58
2023/01/18 05:22:03;;;;;;;3.15;2.25;;;16.10;61.20;;;;;;10426503;28;20024;-58
2023/01/18 05:27:03;;;;;;;2.92;2.00;;;16.10;61.20;;;;;;10427399;28;20038;-57
2023/01/18 05:32:09;;;;;;;2.55;2.25;;;16.10;61.20;;;;;;10434121;28;20017;-57
2023/01/18 05:37:10;;;;;;;3.42;2.17;;;16.10;61.10;;;;;;10437766;28;20023;-58
2023/01/18 05:42:11;;;;;;;5.00;3.50;;;16.10;61.10;;;;;;10447836;28;20048;-57
2023/01/18 05:47:11;;;;;;;6.45;4.50;;;16.00;61.30;;;;;;10428049;28;20128;-57
2023/01/18 05:52:12;;;;;;;12.23;11.13;;;16.10;61.90;;;;;;10424048;28;20108;-58
2023/01/18 05:57:13;;;;;;;11.15;10.05;;;16.20;61.90;;;;;;10425931;28;20068;-59
2023/01/18 06:02:13;;;;;;;15.75;12.20;;;16.30;61.70;;;;;;10418724;28;20538;-57
2023/01/18 06:07:15;;;;;;;13.80;12.50;;;16.30;62.80;;;;;;10428561;28;20124;-59
2023/01/18 06:12:15;;;;;;;12.10;10.90;;;16.20;63.30;;;;;;10413538;28;20045;-58
2023/01/18 06:17:16;;;;;;;13.88;11.00;;;16.10;64.80;;;;;;10410528;28;20053;-57
2023/01/18 06:22:17;;;;;;;13.20;11.27;;;16.20;65.20;;;;;;10405257;28;20059;-58
2023/01/18 06:27:17;;;;;;;17.05;11.38;;;16.20;64.60;;;;;;10428404;28;20025;-58
2023/01/18 06:32:18;;;;;;;15.10;11.75;;;16.20;64.90;;;;;;10439218;28;20432;-57
2023/01/18 06:37:19;;;;;;;13.43;11.48;;;16.20;64.40;;;;;;10454349;28;20668;-57
2023/01/18 06:42:19;;;;;;;23.98;12.18;;;16.10;64.50;;;;;;10439081;28;20456;-57
2023/01/18 06:47:20;;;;;;;16.08;11.05;;;16.10;64.90;;;;;;10428741;28;20052;-58
2023/01/18 06:52:21;;;;;;;14.18;10.43;;;16.10;64.20;;;;;;10432938;28;20072;-57
2023/01/18 06:57:22;;;;;;;16.55;10.75;;;16.00;64.20;;;;;;10429298;28;20083;-60
2023/01/18 07:02:23;;;;;;;20.08;10.50;;;16.00;64.10;;;;;;10431047;28;20407;-63
2023/01/18 07:07:24;;;;;;;18.17;9.52;;;16.00;64.90;;;;;;10425368;28;20091;-58
2023/01/18 07:12:25;;;;;;;20.95;9.55;;;15.90;64.90;;;;;;10416981;28;20496;-58
2023/01/18 07:17:25;;;;;;;16.75;10.18;;;15.80;64.20;;;;;;10425073;28;20519;-60
2023/01/18 07:22:26;;;;;;;15.02;9.32;;;15.80;64.20;;;;;;10440520;28;20171;-57
2023/01/18 07:27:27;;;;;;;13.10;8.73;;;15.80;63.90;;;;;;10427529;28;20419;-58
2023/01/18 07:32:27;;;;;;;13.65;9.25;;;15.80;63.70;;;;;;10425753;28;20112;-59
2023/01/18 07:37:28;;;;;;;13.98;8.38;;;15.90;63.70;;;;;;10425412;28;20068;-58
2023/01/18 07:42:28;;;;;;;10.68;7.30;;;15.80;63.40;;;;;;10400989;28;20121;-58
2023/01/18 07:47:29;;;;;;;10.85;6.95;;;15.90;62.90;;;;;;10425226;28;20040;-59
2023/01/18 07:52:30;;;;;;;16.98;6.82;;;16.00;62.70;;;;;;10435342;28;20108;-58
2023/01/18 07:57:31;;;;;;;14.40;7.18;;;16.00;62.70;;;;;;10436198;28;20111;-57
2023/01/18 08:02:32;;;;;;;18.63;7.47;;;16.00;62.70;;;;;;10445319;28;20067;-58
2023/01/18 08:07:33;;;;;;;12.85;7.03;;;16.00;62.80;;;;;;10410390;28;20025;-59
2023/01/18 08:12:34;;;;;;;13.60;6.68;;;16.10;63.10;;;;;;10418328;28;20071;-58
2023/01/18 08:17:34;;;;;;;12.30;6.32;;;16.00;63.30;;;;;;10432636;28;20032;-58
2023/01/18 08:22:35;;;;;;;12.90;5.72;;;16.10;63.00;;;;;;10429721;28;20025;-60
2023/01/18 08:27:37;;;;;;;13.23;5.93;;;16.00;63.30;;;;;;10434173;28;20076;-60
2023/01/18 08:32:38;;;;;;;14.73;6.07;;;15.90;63.60;;;;;;10448895;28;20038;-61
2023/01/18 08:37:39;;;;;;;8.10;5.05;;;15.90;63.50;;;;;;10444753;28;20060;-58
2023/01/18 08:42:39;;;;;;;9.85;5.10;;;15.90;63.20;;;;;;10444078;28;20048;-59
2023/01/18 08:47:40;;;;;;;14.35;5.40;;;15.90;62.80;;;;;;10416926;28;20020;-60
2023/01/18 08:52:41;;;;;;;7.95;5.32;;;15.80;62.60;;;;;;10455957;28;20033;-59
2023/01/18 08:57:42;;;;;;;8.60;4.57;;;15.80;62.40;;;;;;10437648;28;20033;-58
2023/01/18 09:02:42;;;;;;;7.88;4.55;;;15.80;62.00;;;;;;10442230;28;20025;-60
2023/01/18 09:07:46;;;;;;;13.77;4.50;;;15.80;61.50;;;;;;10424730;28;20122;-61
2023/01/18 09:12:47;;;;;;;8.75;4.32;;;15.90;62.00;;;;;;10423768;28;20479;-59
2023/01/18 09:17:47;;;;;;;9.10;4.13;;;16.00;62.30;;;;;;10424895;28;20063;-61
2023/01/18 09:22:48;;;;;;;8.32;4.68;;;16.00;62.60;;;;;;10433113;28;20013;-60
2023/01/18 09:27:49;;;;;;;9.32;4.28;;;15.90;62.70;;;;;;10437426;28;20527;-60
2023/01/18 09:32:49;;;;;;;5.63;3.95;;;15.80;62.80;;;;;;10410028;28;20037;-61
2023/01/18 09:37:50;;;;;;;9.45;4.00;;;15.70;63.10;;;;;;10438582;28;20472;-60
2023/01/18 09:42:52;;;;;;;8.70;4.47;;;15.70;63.00;;;;;;10428031;28;20052;-60
2023/01/18 09:48:10;;;;;;;8.00;3.90;;;15.70;63.00;;;;;;10427955;28;20074;-59
2023/01/18 09:53:40;;;;;;;8.57;4.05;;;15.70;62.90;;;;;;10416935;28;20040;-60
2023/01/18 09:59:18;;;;;;;5.28;3.60;;;15.70;62.80;;;;;;10420610;28;20465;-60
2023/01/18 10:04:35;;;;;;;5.90;3.67;;;15.70;63.00;;;;;;10338064;28;20514;-61
2023/01/18 10:09:43;;;;;;;5.63;3.17;;;15.70;63.20;;;;;;10434008;28;20084;-60
2023/01/18 10:14:50;;;;;;;7.10;3.65;;;15.60;63.70;;;;;;10429678;28;20041;-60
2023/01/18 10:19:51;;;;;;;4.78;3.00;;;15.50;64.90;;;;;;10429267;28;20021;-60
2023/01/18 10:25:09;;;;;;;5.30;3.08;;;15.40;65.30;;;;;;10420904;28;20115;-61
2023/01/18 10:30:28;;;;;;;7.50;3.55;;;15.40;65.20;;;;;;10440671;28;20036;-61
2023/01/18 10:36:07;;;;;;;5.30;3.53;;;15.30;65.50;;;;;;10411399;28;20083;-60
2023/01/18 10:41:24;;;;;;;4.78;3.22;;;15.40;66.30;;;;;;10451026;28;20936;-61
2023/01/18 10:46:25;;;;;;;5.90;3.10;;;15.30;65.70;;;;;;10439588;28;20052;-60
2023/01/18 10:51:36;;;;;;;4.75;3.60;;;15.30;66.10;;;;;;10437495;28;20064;-60
2023/01/18 10:56:38;;;;;;;5.50;3.28;;;15.30;66.20;;;;;;10429944;28;20044;-59
2023/01/18 11:01:53;;;;;;;8.20;3.70;;;15.30;66.10;;;;;;10438505;28;20044;-60
2023/01/18 11:06:57;;;;;;;5.97;3.30;;;15.40;66.50;;;;;;10435790;28;20076;-61
2023/01/18 11:12:42;;;;;;;7.75;3.30;;;15.40;65.80;;;;;;10431573;28;20051;-58
2023/01/18 11:17:54;;;;;;;8.25;3.30;;;15.30;65.80;;;;;;10447418;28;20028;-59
2023/01/18 11:23:05;;;;;;;4.95;3.35;;;15.50;64.70;;;;;;10439517;28;20017;-60
2023/01/18 11:28:24;;;;;;;6.78;3.33;;;15.60;64.20;;;;;;10434991;28;20038;-61
2023/01/18 11:33:27;;;;;;;4.30;3.50;;;15.50;64.00;;;;;;10426608;28;20030;-60
2023/01/18 11:38:33;;;;;;;6.00;3.78;;;15.50;63.90;;;;;;10429447;28;20029;-59
2023/01/18 11:43:38;;;;;;;5.45;4.00;;;15.60;63.20;;;;;;10423895;28;20512;-59
2023/01/18 11:48:50;;;;;;;8.40;3.92;;;15.70;62.70;;;;;;10440779;28;20124;-58
2023/01/18 11:54:05;;;;;;;6.43;3.65;;;15.50;63.40;;;;;;10443376;28;20554;-58
2023/01/18 11:59:22;;;;;;;8.07;3.70;;;15.50;63.50;;;;;;10432227;28;20018;-58
2023/01/18 12:04:57;;;;;;;5.80;3.75;;;15.50;63.00;;;;;;10425725;28;20094;-58
2023/01/18 12:10:00;;;;;;;6.68;3.90;;;15.50;63.00;;;;;;10433411;28;20045;-58
2023/01/18 12:15:37;;;;;;;6.72;3.63;;;15.50;62.90;;;;;;10429480;28;20569;-58
2023/01/18 12:21:12;;;;;;;5.07;3.50;;;15.40;62.70;;;;;;10415744;28;20017;-60
2023/01/18 12:26:29;;;;;;;6.32;4.50;;;15.40;62.60;;;;;;10418499;28;20022;-59
2023/01/18 12:31:57;;;;;;;5.47;3.38;;;15.50;62.40;;;;;;10420809;28;20041;-58
2023/01/18 12:37:31;;;;;;;6.20;3.38;;;15.50;62.30;;;;;;10442140;28;20017;-60
2023/01/18 12:42:40;;;;;;;7.70;3.30;;;15.50;61.90;;;;;;10425437;28;20037;-59
2023/01/18 12:47:52;;;;;;;5.97;3.73;;;15.40;62.30;;;;;;10429250;28;20028;-60
2023/01/18 12:53:26;;;;;;;7.90;4.18;;;15.40;61.90;;;;;;10421946;28;20033;-59
2023/01/18 12:58:27;;;;;;;7.70;3.20;;;15.30;61.90;;;;;;10416360;28;20033;-59
2023/01/18 13:03:38;;;;;;;5.88;4.18;;;15.30;62.10;;;;;;10434730;28;20025;-59
2023/01/18 13:09:01;;;;;;;8.27;3.72;;;15.10;62.00;;;;;;10431686;28;20492;-58
2023/01/18 13:14:39;;;;;;;4.88;3.15;;;15.00;62.10;;;;;;10429599;28;20021;-59
2023/01/18 13:19:57;;;;;;;5.82;3.65;;;14.90;62.10;;;;;;10433324;28;20029;-59
2023/01/18 13:25:25;;;;;;;7.88;3.13;;;14.80;61.80;;;;;;10417798;28;20025;-58
2023/01/18 13:30:30;;;;;;;8.60;4.00;;;14.90;62.40;;;;;;10427599;28;20021;-59
2023/01/18 13:35:32;;;;;;;8.25;3.05;;;15.10;61.90;;;;;;10426750;28;20040;-59
2023/01/18 13:40:53;;;;;;;8.38;3.42;;;15.00;62.30;;;;;;10440254;28;20041;-58
2023/01/18 13:46:18;;;;;;;8.43;3.20;;;15.10;61.90;;;;;;10428521;28;20051;-59
2023/01/18 13:51:41;;;;;;;8.60;2.75;;;15.20;61.80;;;;;;10422546;28;20051;-59
2023/01/18 13:57:04;;;;;;;7.43;3.08;;;15.40;61.10;;;;;;10443187;28;20040;-56
2023/01/18 14:02:40;;;;;;;5.93;2.60;;;15.50;60.90;;;;;;10438081;28;20044;-57
2023/01/18 14:07:49;;;;;;;9.18;3.92;;;15.60;61.00;;;;;;10432800;28;20575;-57
2023/01/18 14:12:53;;;;;;;8.43;3.10;;;15.60;61.20;;;;;;10445268;28;20049;-57
2023/01/18 14:17:56;;;;;;;13.73;3.42;;;15.70;61.30;;;;;;10445203;28;20017;-57
2023/01/18 14:23:34;;;;;;;4.75;2.97;;;15.60;61.40;;;;;;10420786;28;20113;-57
2023/01/18 14:28:45;;;;;;;6.82;2.63;;;15.60;61.50;;;;;;10412573;28;20022;-58
2023/01/18 14:33:46;;;;;;;9.82;3.65;;;15.60;61.80;;;;;;10419385;28;20072;-58
2023/01/18 14:39:05;;;;;;;7.38;2.90;;;15.60;62.10;;;;;;10427329;28;20361;-57
2023/01/18 14:44:39;;;;;;;8.10;2.83;;;15.50;62.40;;;;;;10433026;28;20021;-58
2023/01/18 14:49:42;;;;;;;12.02;2.95;;;15.50;62.40;;;;;;10439802;28;20108;-56
2023/01/18 14:54:53;;;;;;;10.38;2.58;;;15.50;62.70;;;;;;10418065;28;20033;-57
2023/01/18 15:00:13;;;;;;;13.73;3.00;;;15.60;63.30;;;;;;10405668;28;20018;-57
2023/01/18 15:05:18;;;;;;;14.82;3.22;;;15.60;63.60;;;;;;10437729;28;20066;-56
2023/01/18 15:10:21;;;;;;;12.90;2.55;;;15.60;63.60;;;;;;10431358;28;20883;-57
2023/01/18 15:15:32;;;;;;;9.45;3.08;;;15.80;63.60;;;;;;10435509;28;20705;-59
2023/01/18 15:20:33;;;;;;;13.63;3.88;;;15.90;63.10;;;;;;10423844;28;20021;-58
2023/01/18 15:25:33;;;;;;;14.65;2.67;;;15.70;63.70;;;;;;10438878;28;20519;-57
2023/01/18 15:30:34;;;;;;;9.20;2.63;;;15.70;63.60;;;;;;10410911;28;20072;-58
2023/01/18 15:35:35;;;;;;;9.50;3.28;;;15.60;63.70;;;;;;10457847;28;20727;-58
2023/01/18 15:40:50;;;;;;;10.98;2.50;;;15.60;63.70;;;;;;10446848;28;20023;-58
2023/01/18 15:45:56;;;;;;;15.10;4.00;;;15.60;63.60;;;;;;10423379;28;20032;-59
2023/01/18 15:51:05;;;;;;;6.72;2.38;;;15.60;63.60;;;;;;10436022;28;20049;-59
2023/01/18 15:56:14;;;;;;;8.23;3.15;;;15.60;63.60;;;;;;10427538;28;20033;-58
2023/01/18 16:01:33;;;;;;;5.15;2.08;;;15.60;63.50;;;;;;10436402;28;20094;-59
2023/01/18 16:06:36;;;;;;;8.75;2.13;;;15.60;63.40;;;;;;10417741;28;20520;-59
2023/01/18 16:11:39;;;;;;;9.63;2.17;;;15.60;63.30;;;;;;10423389;28;20040;-59
2023/01/18 16:16:41;;;;;;;9.20;3.58;;;15.60;63.30;;;;;;10449514;28;20026;-58
2023/01/18 16:21:48;;;;;;;7.10;1.70;;;15.70;63.20;;;;;;10431620;28;20079;-59
2023/01/18 16:26:49;;;;;;;7.47;2.33;;;15.70;63.10;;;;;;10434674;28;20499;-59
2023/01/18 16:31:50;;;;;;;4.25;1.92;;;15.70;63.10;;;;;;10431760;28;20179;-59
2023/01/18 16:36:52;;;;;;;6.13;2.17;;;15.70;63.00;;;;;;10430358;28;20018;-59
2023/01/18 16:41:56;;;;;;;5.40;2.15;;;15.70;62.90;;;;;;10420476;28;20144;-59
2023/01/18 16:46:57;;;;;;;4.53;1.20;;;15.70;62.80;;;;;;10423476;28;20028;-60
2023/01/18 16:51:58;;;;;;;32.05;10.70;;;15.50;63.30;;;;;;10437955;28;20072;-58
2023/01/18 16:56:59;;;;;;;30.35;11.25;;;15.70;63.50;;;;;;10437464;28;20727;-58
2023/01/18 17:01:59;;;;;;;20.70;7.03;;;15.70;63.50;;;;;;10442249;28;20116;-58
2023/01/18 17:07:00;;;;;;;13.80;5.63;;;15.70;63.40;;;;;;10440904;28;20111;-58
2023/01/18 17:12:01;;;;;;;10.65;4.18;;;15.70;63.70;;;;;;10441385;28;20080;-59
2023/01/18 17:17:02;;;;;;;9.75;3.80;;;15.70;63.50;;;;;;10445328;28;20116;-59
2023/01/18 17:22:03;;;;;;;11.90;4.13;;;15.70;64.10;;;;;;10425854;28;20479;-57
2023/01/18 17:27:03;;;;;;;8.45;3.15;;;15.80;64.80;;;;;;10419886;28;20030;-57
2023/01/18 17:32:05;;;;;;;11.32;3.78;;;15.90;64.90;;;;;;10442040;28;20115;-59
2023/01/18 17:37:06;;;;;;;10.20;4.00;;;15.90;64.90;;;;;;10419793;28;20735;-57
2023/01/18 17:42:07;;;;;;;22.92;4.50;;;16.00;64.60;;;;;;10435037;28;20021;-57
2023/01/18 17:47:08;;;;;;;11.43;3.38;;;16.00;65.00;;;;;;10422482;28;20025;-57
2023/01/18 17:52:08;;;;;;;15.00;3.72;;;15.90;64.60;;;;;;10430106;28;20638;-57
2023/01/18 17:57:09;;;;;;;12.63;3.42;;;16.00;64.60;;;;;;10429467;28;20053;-58
2023/01/18 18:02:10;;;;;;;18.58;3.80;;;16.00;64.60;;;;;;10429099;28;20071;-57
2023/01/18 18:07:11;;;;;;;8.55;3.08;;;16.00;65.00;;;;;;10424978;28;20031;-58
2023/01/18 18:12:11;;;;;;;7.63;3.03;;;15.90;65.30;;;;;;10436998;28;20334;-59
2023/01/18 18:17:12;;;;;;;8.27;2.25;;;15.90;65.90;;;;;;10431650;28;20018;-59
2023/01/18 18:22:13;;;;;;;7.85;2.53;;;15.80;66.20;;;;;;10423939;28;20114;-60
2023/01/18 18:27:15;;;;;;;8.73;2.90;;;15.80;65.60;;;;;;10409681;28;20051;-59
2023/01/18 18:32:16;;;;;;;10.95;2.58;;;15.80;65.50;;;;;;10435115;28;20038;-59
2023/01/18 18:37:18;;;;;;;9.20;2.75;;;15.70;65.50;;;;;;10421585;28;20112;-59
2023/01/18 18:42:19;;;;;;;8.93;3.08;;;15.70;65.10;;;;;;10428084;28;20017;-59
2023/01/18 18:47:19;;;;;;;7.93;2.67;;;15.60;65.10;;;;;;10438671;28;20108;-58
2023/01/18 18:52:20;;;;;;;9.00;2.28;;;15.70;64.70;;;;;;10438917;28;20132;-58
2023/01/18 18:57:21;;;;;;;11.10;2.80;;;15.80;64.50;;;;;;10438452;28;20108;-59
2023/01/18 19:02:22;;;;;;;6.60;2.92;;;15.80;64.50;;;;;;10443809;28;20064;-58
2023/01/18 19:07:23;;;;;;;8.27;3.92;;;15.80;64.60;;;;;;10447856;28;20028;-58
2023/01/18 19:12:24;;;;;;;13.20;6.82;;;15.80;64.80;;;;;;10445551;28;20106;-57
2023/01/18 19:17:25;;;;;;;9.43;7.88;;;15.80;64.80;;;;;;10439769;28;20054;-57
2023/01/18 19:22:25;;;;;;;8.90;7.50;;;15.80;64.90;;;;;;10449800;28;20021;-57
2023/01/18 19:27:26;;;;;;;10.07;8.10;;;15.90;65.10;;;;;;10443314;28;20422;-58
2023/01/18 19:32:27;;;;;;;12.10;8.38;;;15.90;65.20;;;;;;10447976;28;20090;-58
2023/01/18 19:37:27;;;;;;;10.38;8.35;;;15.80;65.30;;;;;;10442446;28;20028;-57
2023/01/18 19:42:28;;;;;;;9.70;8.02;;;15.80;65.30;;;;;;10450167;28;20056;-58
2023/01/18 19:47:29;;;;;;;12.90;7.85;;;15.80;65.30;;;;;;10417446;28;20372;-57
2023/01/18 19:52:30;;;;;;;14.20;8.93;;;15.80;65.40;;;;;;10433108;28;20029;-57
2023/01/18 19:57:31;;;;;;;13.05;8.50;;;15.80;65.40;;;;;;10431239;28;20055;-57
2023/01/18 20:02:33;;;;;;;12.60;8.38;;;15.80;65.40;;;;;;10438169;28;20433;-59
2023/01/18 20:07:37;;;;;;;13.40;7.80;;;15.80;65.30;;;;;;10444887;28;20028;-58
2023/01/18 20:12:38;;;;;;;10.68;7.80;;;15.80;65.30;;;;;;10407424;28;20037;-57
2023/01/18 20:17:38;;;;;;;12.07;8.35;;;15.70;65.20;;;;;;10440220;28;20449;-57
2023/01/18 20:22:43;;;;;;;8.52;7.70;;;15.70;65.10;;;;;;10427946;28;20534;-57
2023/01/18 20:27:44;;;;;;;10.45;6.80;;;15.70;65.10;;;;;;10431953;28;20676;-58
2023/01/18 20:32:44;;;;;;;10.55;6.75;;;15.70;64.90;;;;;;10411197;28;20037;-58
2023/01/18 20:37:45;;;;;;;8.50;6.80;;;15.70;65.60;;;;;;10428602;28;20067;-58
2023/01/18 20:42:47;;;;;;;7.80;6.30;;;15.70;64.90;;;;;;10427769;28;20068;-57
2023/01/18 20:47:48;;;;;;;9.57;6.70;;;15.70;64.90;;;;;;10427931;28;20076;-57
2023/01/18 20:52:52;;;;;;;7.93;6.63;;;15.70;64.70;;;;;;10441255;28;20068;-57
2023/01/18 20:57:54;;;;;;;10.25;7.88;;;15.70;64.50;;;;;;10427419;28;20010;-57
2023/01/18 21:02:54;;;;;;;7.60;6.10;;;15.70;64.60;;;;;;10444364;28;20017;-57
2023/01/18 21:07:55;;;;;;;7.15;6.45;;;15.70;64.50;;;;;;10434975;28;20028;-58
2023/01/18 21:12:56;;;;;;;6.63;5.68;;;15.70;64.50;;;;;;10420318;28;20049;-57
2023/01/18 21:17:56;;;;;;;7.45;5.43;;;15.70;64.50;;;;;;10406784;28;20606;-58
2023/01/18 21:22:58;;;;;;;8.13;5.30;;;15.70;64.20;;;;;;10429317;28;20713;-58
2023/01/18 21:27:59;;;;;;;5.70;4.93;;;15.90;63.80;;;;;;10446452;28;20116;-58
2023/01/18 21:32:59;;;;;;;6.15;4.10;;;16.00;63.40;;;;;;10447710;28;20039;-57
2023/01/18 21:38:01;;;;;;;7.70;4.68;;;16.00;63.40;;;;;;10432384;28;20114;-58
2023/01/18 21:48:26;;;;;;;5.83;4.27;;;15.90;63.30;;;;;;10447515;28;20028;-57
2023/01/18 21:58:51;;;;;;;6.20;4.20;;;15.90;63.40;;;;;;10419259;28;20124;-57
2023/01/18 22:09:13;;;;;;;4.80;3.92;;;15.90;63.40;;;;;;10431975;28;20143;-57
2023/01/18 22:14:14;;;;;;;4.50;3.45;;;15.90;63.40;;;;;;10405295;28;20133;-56
2023/01/18 22:19:15;;;;;;;5.82;3.22;;;15.90;63.40;;;;;;10410240;28;20465;-57
2023/01/18 22:24:16;;;;;;;4.65;3.30;;;15.90;63.40;;;;;;10440994;28;20037;-57
2023/01/18 22:29:17;;;;;;;5.80;3.20;;;15.90;63.30;;;;;;10436993;28;20029;-57
2023/01/18 22:34:19;;;;;;;4.97;3.30;;;15.90;63.20;;;;;;10408722;28;20109;-57
2023/01/18 22:39:19;;;;;;;6.30;3.75;;;15.90;63.20;;;;;;10413165;28;20029;-58
2023/01/18 22:44:20;;;;;;;5.90;3.58;;;15.90;63.00;;;;;;10423253;28;20078;-58
2023/01/18 22:49:21;;;;;;;3.78;2.60;;;16.00;62.90;;;;;;10418254;28;20100;-57
2023/01/18 22:54:22;;;;;;;6.20;2.85;;;16.00;62.90;;;;;;10413070;28;20116;-58
2023/01/18 22:59:23;;;;;;;3.90;2.33;;;16.00;62.80;;;;;;10414179;28;20029;-57
2023/01/18 23:04:23;;;;;;;3.92;2.30;;;16.00;62.80;;;;;;10439605;28;20100;-58
2023/01/18 23:09:25;;;;;;;4.40;2.40;;;15.90;62.90;;;;;;10421185;28;20025;-58
2023/01/18 23:19:45;;;;;;;3.25;2.03;;;15.90;62.90;;;;;;10452544;28;20033;-57
2023/01/18 23:24:46;;;;;;;4.63;2.20;;;15.90;62.90;;;;;;10427499;28;20667;-58
2023/01/18 23:29:50;;;;;;;3.05;1.73;;;15.90;62.90;;;;;;10423565;28;20104;-56
2023/01/18 23:34:52;;;;;;;3.85;2.30;;;16.00;62.70;;;;;;10431120;28;20044;-57
2023/01/18 23:55:51;;;;;;;3.47;1.70;;;16.00;62.70;;;;;;10426124;28;20041;-57
